createdAt,value
2022-12-01T00:01:03.093Z,4.57
2022-12-01T00:03:31.518Z,4.59
2022-12-01T00:06:03.553Z,4.59
2022-12-01T00:08:31.421Z,4.43
2022-12-01T00:11:12.176Z,4.69
2022-12-01T00:13:38.859Z,4.51
2022-12-01T00:16:16.445Z,4.38
2022-12-01T00:18:43.827Z,4.39
2022-12-01T00:21:15.072Z,4.43
2022-12-01T00:23:47.290Z,4.49
2022-12-01T00:26:14.766Z,4.51
2022-12-01T00:28:41.251Z,4.55
2022-12-01T00:31:11.959Z,4.55
2022-12-01T00:33:39.584Z,4.49
2022-12-01T00:36:07.241Z,4.49
2022-12-01T00:38:33.663Z,4.58
2022-12-01T00:41:00.043Z,4.54
2022-12-01T00:43:26.479Z,4.43
2022-12-01T00:45:53.027Z,4.29
2022-12-01T00:48:19.599Z,4.29
2022-12-01T00:50:46.006Z,4.23
2022-12-01T00:53:12.399Z,4.20
2022-12-01T00:55:40.115Z,4.17
2022-12-01T00:58:07.362Z,4.21
2022-12-01T01:00:34.635Z,4.09
2022-12-01T01:03:01.392Z,4.15
2022-12-01T01:05:27.766Z,4.26
2022-12-01T01:07:54.200Z,4.22
2022-12-01T01:10:20.673Z,4.11
2022-12-01T01:12:47.059Z,4.03
2022-12-01T01:15:13.453Z,4.14
2022-12-01T01:17:39.822Z,4.17
2022-12-01T01:20:07.039Z,4.04
2022-12-01T01:22:35.223Z,3.88
2022-12-01T01:25:01.790Z,3.87
2022-12-01T01:27:28.169Z,3.96
2022-12-01T01:29:54.563Z,3.97
2022-12-01T01:32:20.978Z,4.07
2022-12-01T01:34:47.338Z,4.03
2022-12-01T01:37:13.736Z,4.03
2022-12-01T01:39:40.112Z,3.94
2022-12-01T01:42:06.536Z,3.89
2022-12-01T01:44:51.076Z,3.91
2022-12-01T01:47:23.097Z,3.90
2022-12-01T01:49:49.930Z,3.85
2022-12-01T01:52:17.744Z,3.86
2022-12-01T01:54:48.104Z,3.96
2022-12-01T01:57:20.687Z,3.94
2022-12-01T01:59:52.135Z,3.89
2022-12-01T02:02:18.597Z,3.82
2022-12-01T02:04:53.927Z,3.91
2022-12-01T02:07:20.729Z,3.87
2022-12-01T02:09:47.675Z,3.76
2022-12-01T02:12:32.880Z,3.68
2022-12-01T02:15:08.751Z,3.72
2022-12-01T02:18:05.915Z,3.84
2022-12-01T02:21:00.760Z,3.69
2022-12-01T02:24:03.876Z,3.55
2022-12-01T02:26:39.799Z,3.47
2022-12-01T02:29:12.233Z,3.48
2022-12-01T02:31:47.046Z,3.76
2022-12-01T02:34:18.815Z,3.60
2022-12-01T02:36:53.972Z,3.51
2022-12-01T02:39:37.455Z,3.42
2022-12-01T02:42:11.588Z,3.38
2022-12-01T02:44:44.588Z,3.41
2022-12-01T02:47:17.045Z,3.32
2022-12-01T02:49:56.256Z,3.21
2022-12-01T02:52:23.924Z,3.36
2022-12-01T02:54:51.244Z,3.33
2022-12-01T02:57:17.904Z,3.42
2022-12-01T02:59:49.561Z,3.36
2022-12-01T03:02:27.981Z,3.33
2022-12-01T03:05:15.422Z,3.40
2022-12-01T03:08:14.187Z,3.32
2022-12-01T03:10:58.009Z,3.36
2022-12-01T03:13:36.200Z,3.36
2022-12-01T03:16:16.345Z,3.32
2022-12-01T03:18:53.228Z,3.34
2022-12-01T03:21:41.841Z,3.33
2022-12-01T03:24:10.669Z,3.22
2022-12-01T03:26:39.464Z,3.17
2022-12-01T03:29:10.722Z,3.16
2022-12-01T03:31:42.606Z,3.22
2022-12-01T03:34:27.011Z,3.23
2022-12-01T03:37:01.440Z,3.25
2022-12-01T03:39:34.512Z,3.24
2022-12-01T03:42:08.120Z,3.30
2022-12-01T03:44:40.562Z,3.22
2022-12-01T03:47:12.473Z,3.30
2022-12-01T03:49:40.671Z,3.31
2022-12-01T03:52:20.339Z,3.19
2022-12-01T03:55:12.063Z,3.15
2022-12-01T03:57:46.237Z,3.18
2022-12-01T04:00:14.556Z,3.05
2022-12-01T04:02:41.220Z,2.98
2022-12-01T04:05:11.359Z,2.95
2022-12-01T04:07:39.256Z,3.01
2022-12-01T04:10:07.362Z,2.91
2022-12-01T04:12:34.064Z,2.91
2022-12-01T04:15:03.602Z,3.04
2022-12-01T04:17:30.589Z,3.03
2022-12-01T04:19:56.951Z,3.01
2022-12-01T04:22:24.427Z,3.04
2022-12-01T04:24:50.823Z,3.01
2022-12-01T04:27:17.332Z,3.04
2022-12-01T04:29:43.871Z,3.09
2022-12-01T04:32:10.623Z,3.08
2022-12-01T04:34:37.015Z,3.04
2022-12-01T04:37:04.705Z,3.09
2022-12-01T04:39:31.112Z,3.05
2022-12-01T04:41:57.468Z,3.13
2022-12-01T04:44:23.823Z,3.03
2022-12-01T04:46:51.794Z,2.97
2022-12-01T04:49:19.186Z,3.10
2022-12-01T04:51:45.761Z,3.07
2022-12-01T04:54:12.247Z,2.89
2022-12-01T04:56:38.640Z,2.95
2022-12-01T04:59:05.035Z,3.14
2022-12-01T05:01:31.446Z,2.96
2022-12-01T05:03:57.912Z,2.86
2022-12-01T05:06:28.142Z,2.84
2022-12-01T05:08:57.452Z,2.96
2022-12-01T05:11:24.894Z,2.91
2022-12-01T05:13:51.297Z,2.94
2022-12-01T05:16:24.171Z,2.98
2022-12-01T05:19:12.957Z,3.05
2022-12-01T05:21:40.399Z,2.91
2022-12-01T05:24:07.715Z,2.93
2022-12-01T05:26:34.363Z,2.94
2022-12-01T05:29:01.013Z,2.95
2022-12-01T05:31:27.632Z,3.09
2022-12-01T05:33:54.058Z,3.18
2022-12-01T05:36:20.412Z,3.03
2022-12-01T05:38:46.765Z,2.98
2022-12-01T05:41:13.342Z,2.77
2022-12-01T05:43:39.732Z,2.93
2022-12-01T05:46:06.418Z,2.96
2022-12-01T05:48:32.903Z,2.86
2022-12-01T05:50:59.403Z,2.83
2022-12-01T05:53:25.819Z,2.91
2022-12-01T05:55:53.739Z,2.84
2022-12-01T05:58:21.928Z,2.81
2022-12-01T06:00:48.344Z,2.71
2022-12-01T06:03:14.693Z,2.68
2022-12-01T06:05:41.175Z,2.82
2022-12-01T06:08:07.889Z,2.77
2022-12-01T06:10:34.493Z,2.88
2022-12-01T06:13:00.948Z,2.81
2022-12-01T06:15:27.415Z,2.74
2022-12-01T06:17:53.815Z,2.69
2022-12-01T06:20:20.419Z,2.97
2022-12-01T06:22:46.866Z,2.73
2022-12-01T06:25:13.235Z,2.78
2022-12-01T06:27:39.595Z,2.84
2022-12-01T06:30:06.910Z,2.81
2022-12-01T06:32:33.366Z,2.91
2022-12-01T06:34:59.840Z,2.86
2022-12-01T06:37:27.690Z,2.63
2022-12-01T06:39:54.217Z,2.50
2022-12-01T06:42:20.796Z,2.52
2022-12-01T06:44:47.218Z,2.70
2022-12-01T06:47:13.997Z,2.53
2022-12-01T06:49:40.346Z,2.51
2022-12-01T06:52:06.804Z,2.63
2022-12-01T06:54:33.468Z,2.56
2022-12-01T06:56:59.873Z,2.57
2022-12-01T06:59:26.521Z,2.58
2022-12-01T07:01:53.168Z,2.79
2022-12-01T07:04:19.998Z,2.63
2022-12-01T07:06:46.462Z,2.50
2022-12-01T07:09:12.920Z,2.48
2022-12-01T07:11:39.453Z,2.52
2022-12-01T07:14:06.026Z,2.68
2022-12-01T07:16:32.594Z,2.59
2022-12-01T07:18:59.932Z,2.59
2022-12-01T07:21:26.418Z,2.66
2022-12-01T07:23:53.129Z,2.59
2022-12-01T07:26:19.639Z,2.65
2022-12-01T07:28:46.185Z,2.78
2022-12-01T07:31:22.079Z,2.77
2022-12-01T07:33:48.691Z,2.92
2022-12-01T07:36:15.639Z,2.92
2022-12-01T07:38:42.402Z,2.79
2022-12-01T07:41:10.135Z,3.07
2022-12-01T07:43:36.966Z,2.88
2022-12-01T07:46:08.923Z,2.72
2022-12-01T07:48:37.209Z,2.68
2022-12-01T07:51:08.135Z,2.71
2022-12-01T07:53:34.937Z,2.71
2022-12-01T07:56:05.676Z,2.87
2022-12-01T07:58:35.093Z,2.90
2022-12-01T08:01:10.124Z,2.81
2022-12-01T08:03:37.543Z,2.74
2022-12-01T08:06:05.895Z,2.94
2022-12-01T08:08:34.346Z,3.01
2022-12-01T08:11:02.943Z,3.14
2022-12-01T08:13:29.694Z,3.26
2022-12-01T08:15:56.379Z,3.23
2022-12-01T08:18:23.549Z,3.14
2022-12-01T08:20:50.988Z,3.11
2022-12-01T08:23:17.382Z,3.16
2022-12-01T08:25:43.782Z,3.16
2022-12-01T08:28:10.156Z,3.28
2022-12-01T08:30:36.516Z,3.23
2022-12-01T08:33:03.154Z,3.22
2022-12-01T08:35:29.624Z,3.39
2022-12-01T08:37:55.998Z,3.58
2022-12-01T08:40:22.626Z,3.45
2022-12-01T08:42:49.036Z,3.46
2022-12-01T08:45:15.506Z,3.57
2022-12-01T08:47:41.949Z,3.63
2022-12-01T08:50:08.736Z,3.58
2022-12-01T08:52:35.322Z,3.58
2022-12-01T08:55:02.022Z,3.66
2022-12-01T08:57:32.146Z,3.69
2022-12-01T08:59:58.609Z,3.81
2022-12-01T09:02:25.592Z,3.82
2022-12-01T09:04:52.117Z,3.86
2022-12-01T09:07:24.596Z,3.96
2022-12-01T09:09:52.902Z,3.90
2022-12-01T09:12:19.402Z,3.99
2022-12-01T09:14:48.131Z,4.01
2022-12-01T09:17:15.533Z,4.14
2022-12-01T09:19:42.996Z,4.12
2022-12-01T09:22:10.957Z,4.19
2022-12-01T09:24:38.152Z,4.28
2022-12-01T09:27:05.167Z,4.34
2022-12-01T09:29:32.098Z,4.42
2022-12-01T09:32:00.506Z,4.40
2022-12-01T09:34:27.948Z,4.44
2022-12-01T09:36:56.749Z,4.44
2022-12-01T09:39:24.067Z,4.51
2022-12-01T09:41:56.047Z,4.64
2022-12-01T09:44:30.200Z,4.58
2022-12-01T09:47:06.020Z,4.60
2022-12-01T09:50:02.454Z,4.67
2022-12-01T09:52:33.807Z,4.72
2022-12-01T09:55:01.256Z,4.74
2022-12-01T09:57:36.798Z,4.86
2022-12-01T10:00:11.421Z,4.90
2022-12-01T10:02:43.571Z,4.86
2022-12-01T10:05:23.864Z,4.83
2022-12-01T10:07:58.679Z,4.80
2022-12-01T10:10:36.504Z,5.00
2022-12-01T10:13:03.185Z,5.04
2022-12-01T10:15:43.659Z,5.07
2022-12-01T10:18:34.607Z,5.18
2022-12-01T10:21:24.013Z,5.17
2022-12-01T10:24:11.832Z,5.20
2022-12-01T10:26:50.796Z,5.27
2022-12-01T10:29:48.086Z,5.29
2022-12-01T10:32:19.159Z,5.38
2022-12-01T10:34:47.787Z,5.43
2022-12-01T10:37:22.373Z,5.45
2022-12-01T10:39:52.443Z,5.55
2022-12-01T10:42:34.242Z,5.58
2022-12-01T10:45:03.194Z,5.60
2022-12-01T10:47:29.771Z,5.64
2022-12-01T10:49:56.314Z,5.66
2022-12-01T10:52:40.987Z,5.67
2022-12-01T10:55:22.442Z,5.75
2022-12-01T10:57:49.908Z,5.84
2022-12-01T11:00:59.555Z,5.84
2022-12-01T11:03:28.868Z,5.88
2022-12-01T11:05:58.689Z,5.91
2022-12-01T11:08:40.799Z,5.89
2022-12-01T11:11:21.420Z,5.79
2022-12-01T11:13:48.124Z,5.92
2022-12-01T11:16:35.275Z,5.99
2022-12-01T11:19:32.849Z,6.05
2022-12-01T11:22:02.337Z,6.05
2022-12-01T11:24:58.526Z,5.95
2022-12-01T11:27:37.847Z,6.09
2022-12-01T11:30:22.540Z,6.13
2022-12-01T11:32:58.293Z,6.19
2022-12-01T11:35:28.131Z,6.36
2022-12-01T11:38:28.233Z,6.29
2022-12-01T11:40:56.858Z,6.38
2022-12-01T11:43:34.732Z,6.38
2022-12-01T11:46:05.286Z,6.43
2022-12-01T11:48:36.781Z,6.45
2022-12-01T11:51:27.078Z,6.43
2022-12-01T11:54:16.875Z,6.51
2022-12-01T11:56:45.125Z,6.56
2022-12-01T11:59:18.080Z,6.62
2022-12-01T12:01:55.405Z,6.50
2022-12-01T12:04:48.201Z,6.60
2022-12-01T12:07:43.157Z,6.65
2022-12-01T12:10:21.952Z,6.70
2022-12-01T12:12:56.578Z,6.76
2022-12-01T12:15:28.806Z,6.69
2022-12-01T12:18:22.317Z,6.77
2022-12-01T12:21:14.619Z,6.73
2022-12-01T12:24:08.347Z,6.79
2022-12-01T12:26:57.693Z,6.88
2022-12-01T12:29:56.540Z,6.82
2022-12-01T12:32:58.328Z,6.81
2022-12-01T12:35:39.952Z,6.89
2022-12-01T12:38:25.705Z,6.94
2022-12-01T12:40:57.846Z,6.92
2022-12-01T12:43:42.051Z,6.93
2022-12-01T12:46:11.897Z,6.91
2022-12-01T12:49:23.315Z,6.93
2022-12-01T12:52:31.059Z,7.00
2022-12-01T12:55:23.148Z,7.02
2022-12-01T13:01:43.896Z,7.09
2022-12-01T13:08:02.969Z,7.11
2022-12-01T13:10:52.243Z,7.11
2022-12-01T13:13:40.206Z,7.08
2022-12-01T13:16:13.393Z,7.11
2022-12-01T13:18:46.716Z,7.08
2022-12-01T13:21:17.571Z,7.12
2022-12-01T13:23:47.002Z,7.10
2022-12-01T13:26:16.580Z,7.10
2022-12-01T13:28:52.956Z,7.14
2022-12-01T13:31:23.286Z,7.23
2022-12-01T13:34:29.683Z,7.26
2022-12-01T13:37:05.135Z,7.22
2022-12-01T13:43:35.497Z,7.23
2022-12-01T13:46:45.714Z,7.27
2022-12-01T14:15:55.497Z,7.32
2022-12-01T14:18:52.542Z,7.35
2022-12-01T14:21:47.064Z,7.30
2022-12-01T14:24:41.332Z,7.32
2022-12-01T14:27:14.113Z,7.36
2022-12-01T14:29:44.729Z,7.36
2022-12-01T14:32:17.533Z,7.35
2022-12-01T14:34:44.516Z,7.35
2022-12-01T14:37:19.937Z,7.37
2022-12-01T14:40:05.959Z,7.37
2022-12-01T14:42:56.969Z,7.34
2022-12-01T14:45:57.724Z,7.28
2022-12-01T14:48:34.238Z,7.24
2022-12-01T14:51:14.693Z,7.20
2022-12-01T14:53:52.286Z,7.19
2022-12-01T14:56:22.529Z,7.10
2022-12-01T14:58:59.305Z,7.08
2022-12-01T15:01:34.025Z,7.00
2022-12-01T15:04:06.406Z,6.93
2022-12-01T15:06:42.704Z,6.88
2022-12-01T15:09:39.780Z,6.83
2022-12-01T15:12:12.331Z,6.76
2022-12-01T15:14:47.777Z,6.73
2022-12-01T15:17:48.636Z,6.59
2022-12-01T15:20:37.243Z,6.62
2022-12-01T15:23:15.442Z,6.56
2022-12-01T15:25:46.693Z,6.55
2022-12-01T15:28:22.521Z,6.54
2022-12-01T15:41:21.112Z,6.21
2022-12-01T15:43:41.927Z,6.27
2022-12-01T15:54:25.803Z,6.05
2022-12-01T15:56:54.070Z,6.02
2022-12-01T15:59:40.519Z,6.02
2022-12-01T16:05:35.595Z,5.91
2022-12-01T16:08:42.521Z,5.76
2022-12-01T16:11:21.940Z,5.75
2022-12-01T16:13:57.949Z,5.64
2022-12-01T16:16:34.266Z,5.55
2022-12-01T16:19:20.103Z,5.53
2022-12-01T16:21:50.000Z,5.28
2022-12-01T16:24:39.363Z,5.25
2022-12-01T16:27:17.117Z,5.20
2022-12-01T16:30:06.371Z,5.22
2022-12-01T16:32:38.651Z,5.22
2022-12-01T16:35:07.285Z,5.26
2022-12-01T16:37:33.899Z,5.36
2022-12-01T16:40:03.507Z,5.14
2022-12-01T16:42:29.992Z,5.16
2022-12-01T16:45:00.968Z,5.25
2022-12-01T16:47:31.623Z,5.00
2022-12-01T16:49:58.395Z,5.10
2022-12-01T16:55:39.060Z,4.98
2022-12-01T16:58:05.919Z,5.03
2022-12-01T17:00:33.160Z,5.09
2022-12-01T17:03:00.446Z,5.00
2022-12-01T17:05:27.731Z,5.09
2022-12-01T17:07:59.324Z,5.04
2022-12-01T17:10:31.592Z,4.96
2022-12-01T17:13:03.632Z,5.07
2022-12-01T17:15:30.328Z,5.04
2022-12-01T17:17:57.033Z,4.94
2022-12-01T17:20:23.629Z,4.99
2022-12-01T17:22:50.234Z,4.86
2022-12-01T17:25:20.017Z,4.78
2022-12-01T17:28:11.909Z,4.74
2022-12-01T17:30:41.376Z,4.78
2022-12-01T17:33:10.497Z,4.78
2022-12-01T17:35:50.078Z,4.78
2022-12-01T17:38:16.943Z,4.90
2022-12-01T17:40:43.579Z,4.91
2022-12-01T17:43:10.001Z,4.93
2022-12-01T17:45:41.926Z,5.04
2022-12-01T17:48:08.979Z,5.10
2022-12-01T17:50:38.520Z,4.86
2022-12-01T17:53:05.035Z,4.91
2022-12-01T17:55:31.591Z,4.86
2022-12-01T17:57:58.799Z,4.91
2022-12-01T18:00:25.278Z,4.96
2022-12-01T18:02:51.774Z,4.86
2022-12-01T18:05:18.511Z,4.73
2022-12-01T18:07:45.080Z,4.62
2022-12-01T18:10:11.740Z,4.71
2022-12-01T18:12:38.327Z,4.67
2022-12-01T18:15:06.352Z,4.73
2022-12-01T18:17:32.901Z,4.68
2022-12-01T18:19:59.368Z,4.71
2022-12-01T18:22:25.871Z,4.75
2022-12-01T18:24:52.813Z,4.86
2022-12-01T18:27:19.583Z,4.69
2022-12-01T18:29:46.029Z,4.68
2022-12-01T18:32:12.511Z,4.80
2022-12-01T18:34:39.230Z,4.85
2022-12-01T18:37:06.038Z,4.85
2022-12-01T18:39:32.931Z,4.90
2022-12-01T18:41:59.381Z,4.71
2022-12-01T18:44:25.950Z,4.59
2022-12-01T18:46:52.827Z,4.55
2022-12-01T18:49:19.701Z,4.63
2022-12-01T18:51:46.408Z,4.60
2022-12-01T18:54:16.037Z,4.60
2022-12-01T18:56:43.136Z,4.50
2022-12-01T18:59:11.095Z,4.49
2022-12-01T19:01:40.478Z,4.58
2022-12-01T19:04:08.533Z,4.47
2022-12-01T19:06:37.209Z,4.49
2022-12-01T19:09:06.085Z,4.48
2022-12-01T19:11:33.395Z,4.56
2022-12-01T19:13:59.906Z,4.64
2022-12-01T19:16:26.903Z,4.64
2022-12-01T19:18:53.476Z,4.68
2022-12-01T19:21:20.607Z,4.58
2022-12-01T19:23:47.923Z,4.65
2022-12-01T19:26:19.914Z,4.59
2022-12-01T19:28:47.175Z,4.60
2022-12-01T19:31:19.246Z,4.63
2022-12-01T19:33:46.596Z,4.72
2022-12-01T19:36:18.492Z,4.82
2022-12-01T19:38:45.441Z,4.87
2022-12-01T19:41:13.436Z,4.80
2022-12-01T19:43:40.279Z,4.67
2022-12-01T19:46:15.742Z,4.66
2022-12-01T19:48:43.280Z,4.65
2022-12-01T19:51:17.639Z,4.58
2022-12-01T19:53:44.374Z,4.48
2022-12-01T19:56:11.257Z,4.54
2022-12-01T19:58:37.730Z,4.53
2022-12-01T20:01:10.123Z,4.51
2022-12-01T20:03:38.043Z,4.49
2022-12-01T20:06:10.576Z,4.54
2022-12-01T20:08:37.143Z,4.53
2022-12-01T20:11:05.672Z,4.52
2022-12-01T20:13:36.635Z,4.66
2022-12-01T20:16:09.415Z,4.78
2022-12-01T20:18:37.252Z,4.84
2022-12-01T20:21:17.267Z,4.81
2022-12-01T20:23:46.381Z,4.71
2022-12-01T20:26:14.043Z,4.60
2022-12-01T20:28:41.035Z,4.57
2022-12-01T20:31:11.162Z,4.71
2022-12-01T20:33:38.897Z,4.82
2022-12-01T20:36:06.700Z,4.74
2022-12-01T20:38:33.648Z,4.72
2022-12-01T20:41:00.084Z,4.69
2022-12-01T20:43:26.619Z,4.74
2022-12-01T20:45:53.053Z,4.78
2022-12-01T20:48:19.469Z,4.76
2022-12-01T20:50:46.182Z,4.78
2022-12-01T20:53:12.650Z,4.76
2022-12-01T20:55:39.228Z,4.68
2022-12-01T20:58:08.455Z,4.71
2022-12-01T21:00:39.374Z,4.73
2022-12-01T21:03:06.345Z,4.72
2022-12-01T21:05:34.967Z,4.75
2022-12-01T21:08:01.877Z,4.73
2022-12-01T21:10:30.763Z,4.76
2022-12-01T21:13:20.212Z,4.85
2022-12-01T21:15:52.391Z,4.80
2022-12-01T21:18:26.508Z,4.70
2022-12-01T21:21:03.692Z,4.70
2022-12-01T21:23:30.297Z,4.77
2022-12-01T21:25:57.134Z,4.80
2022-12-01T21:28:25.987Z,4.75
2022-12-01T21:31:01.778Z,4.70
2022-12-01T21:33:35.363Z,4.82
2022-12-01T21:36:07.422Z,4.74
2022-12-01T21:38:33.896Z,4.71
2022-12-01T21:41:00.599Z,4.78
2022-12-01T21:43:27.000Z,4.98
2022-12-01T21:45:57.722Z,4.94
2022-12-01T21:48:24.312Z,4.88
2022-12-01T21:51:01.460Z,4.78
2022-12-01T21:53:37.235Z,4.77
2022-12-01T21:56:03.758Z,4.84
2022-12-01T21:58:35.275Z,4.80
2022-12-01T22:01:07.700Z,4.69
2022-12-01T22:03:43.327Z,4.63
2022-12-01T22:09:00.947Z,4.74
2022-12-01T22:11:29.467Z,4.65
2022-12-01T22:14:08.065Z,4.70
2022-12-01T22:16:41.754Z,4.74
2022-12-01T22:19:32.279Z,4.74
2022-12-01T22:22:02.952Z,4.77
2022-12-01T22:24:36.793Z,4.85
2022-12-01T22:27:23.432Z,4.88
2022-12-01T22:29:52.908Z,4.83
2022-12-01T22:32:32.974Z,4.84
2022-12-01T22:35:25.652Z,4.81
2022-12-01T22:38:05.341Z,4.76
2022-12-01T22:40:39.931Z,4.82
2022-12-01T22:43:21.548Z,4.79
2022-12-01T22:45:49.205Z,4.74
2022-12-01T22:48:24.462Z,4.90
2022-12-01T22:50:52.129Z,4.85
2022-12-01T22:53:26.978Z,4.80
2022-12-01T22:55:55.795Z,4.89
2022-12-01T22:58:34.963Z,5.04
2022-12-01T23:01:07.704Z,4.95
2022-12-01T23:03:34.192Z,4.87
2022-12-01T23:06:00.627Z,4.85
2022-12-01T23:08:27.010Z,4.81
2022-12-01T23:10:53.420Z,4.81
2022-12-01T23:13:22.332Z,4.89
2022-12-01T23:15:51.634Z,4.94
2022-12-01T23:18:22.689Z,4.86
2022-12-01T23:20:53.748Z,4.88
2022-12-01T23:23:25.512Z,4.72
2022-12-01T23:25:51.963Z,4.73
2022-12-01T23:28:19.440Z,4.82
2022-12-01T23:30:49.561Z,4.77
2022-12-01T23:33:30.243Z,4.71
2022-12-01T23:36:10.928Z,4.73
2022-12-01T23:38:45.226Z,4.76
2022-12-01T23:41:36.166Z,4.72
2022-12-01T23:44:27.536Z,4.83
2022-12-01T23:46:57.288Z,4.80
2022-12-01T23:49:31.231Z,4.76
2022-12-01T23:52:00.739Z,4.82
2022-12-01T23:54:30.683Z,4.77
2022-12-01T23:57:01.193Z,4.85
2022-12-01T23:59:29.958Z,4.83
